Portada
METAR-TAF:

METAR-TAF

Aeroports :

Matsumoto, Japó

latitud: 36-10N, longitud: 137-56E, altitud: 668 m

Observació

L'informe es va fer fa 3 hores i 38 minuts, a les 07:00 UTC
Vent 10 kt del Sud/Sud-Est
Temperatura 16°C
Humitat 55%
Pressió 1021 hPa
Visibilitat 10 km o més
Escasses núvols a una alçada de 4000 ft
Cel ennuvolat

METAR: RJAF 210700Z 16010KT 9999 FEW040 BKN/// 16/07 Q1021

Hora: 19:38 (10:38 UTC)


TAF: manca

Observacions i pronòstics meteorològics de més de 4000 aeroports (METAR i TAF).

Les estacions disponibles són els punts grocs i vermells al mapa.

Posi el ratolí al punt desitjat per veure el nom de l'estació.

Feu clic per veure les observacions i els pronòstics meteorològics.

Per canviar el mapa: feu clic els botons verds amb una creu de color negre per apropar; al botó verd amb un guió per allunyar la imatge; o en les fletxes verdes per a mapes adjacents.


METAR-TAF: